Nearby METAR Reports

 

CYYJ - Victoria Intl Ar, British Columbia, Canada
Distance from station: N 6km
Updated: 22/06/2021 10:00
Clear
Clear
 Wind from SE
Wind: SE 19 km/h
Temperature: 17°C
Dew Point: 11°C
Humidity: 68%
Barometer: 1010.5 hPa
Clouds: Clear
Visibility: 48 km
2021/06/22 17:00 CYYJ 221700Z 13010KT 30SM SKC 17/11 A2984 RMK SLP106 DENSITY ALT 500FT
CWKH - Malahat (autob), British Columbia, Canada
Distance from station: WSW 10km
Updated: 22/06/2021 10:00

 
Temperature: 21°C
2021/06/22 17:00 CWKH 221700Z AUTO 21/ RMK AO1 SLP098 T0206 52003
 
CWPF - Esquimalt Metoc, British Columbia, Canada
Distance from station: S 18km
Updated: 22/06/2021 10:15

 Wind from SSE
Wind: SSE 15 km/h, Gust: 30 km/h
Temperature: 13°C
Dew Point: 10°C
Humidity: 82%
2021/06/22 17:15 CWPF 221715Z AUTO 16008G16KT 13/10 RMK AO1 SLP106 T01340098 51003
CWYJ - Victoria Univ, British Columbia, Canada
Distance from station: SSE 18km
Updated: 22/06/2021 16:00

 Wind from N
Wind: N 9 km/h
Temperature: 27°C
Dew Point: 12°C
Humidity: 39%
2021/06/22 23:00 CWYJ 222300Z AUTO 01005KT 27/12 RMK AO1 SLP110 T02680117 58014
 
CYWH - Victoria Harbour, British Columbia, Canada
Distance from station: S 20km
Updated: 22/06/2021 10:00
Clear
Clear
 Wind from varies
Wind: varies 4 km/h
Temperature: 16°C
Dew Point: 12°C
Humidity: 77%
Barometer: 1010.8 hPa
Clouds: Clear
Visibility: 24 km
2021/06/22 17:00 CYWH 221700Z VRB02KT 15SM SKC 16/12 A2985 RMK SLP110 DENSITY ALT 200FT
CWLM - Victoria (autob), British Columbia, Canada
Distance from station: SSE 21km
Updated: 22/06/2021 10:00

 Wind from SW
Wind: SW 19 km/h, Gust: 31 km/h
Temperature: 14°C
Dew Point: 10°C
Humidity: 77%
2021/06/22 17:00 CWLM 221700Z AUTO 23010G17KT 14/10 RMK AO1 PK WND 25017/1658 SLP110 T01390103 51004
 
KFHR - Friday Harbor, Washington, USA
Distance from station: ESE 30km
Updated: 22/06/2021 09:53
Few Clouds
Few Clouds
 Wind from ESE
Wind: ESE 13 km/h
Temperature: 15°C
Dew Point: 12°C
Humidity: 82%
Barometer: 1011.9 hPa
Clouds: Few Clouds
Visibility: 16 km
Cloud details: Few Clouds 91 m
2021/06/22 16:53 KFHR 221653Z AUTO 12007KT 10SM FEW003 15/12 A2988 RMK AO2 SLP118 T01500117 TSNO
CWQK - Race Rocks Autob, British Columbia, Canada
Distance from station: SSW 34km
Updated: 22/06/2021 10:00

 Wind from WSW
Wind: WSW 39 km/h
Temperature: 12°C
2021/06/22 17:00 CWQK 221700Z AUTO 24021KT 12/ RMK AO1 PK WND 25028/1613 SLP109 T0120 51010
 
CWEZ - Saturna Isl (map, British Columbia, Canada
Distance from station: NE 35km
Updated: 22/06/2021 10:00

 Wind from NW
Wind: NW 6 km/h
Temperature: 20°C
Dew Point: 14°C
Humidity: 69%
2021/06/22 17:00 CWEZ 221700Z AUTO 32003KT 20/14 RMK AO1 SLP105 T01950143 51004
KORS - Eastsound/Orcas, Washington, USA
Distance from station: ENE 39km
Updated: 22/06/2021 10:15
Clear
Clear
 Wind from S
Wind: S 13 km/h
Temperature: 19°C
Dew Point: 13°C
Humidity: 68%
Barometer: 1010.8 hPa
Clouds: Clear
Visibility: 16 km
2021/06/22 17:15 KORS 221715Z AUTO 17007KT 10SM CLR 19/13 A2985 RMK AO2
 
CWSP - Sheringham Autob, British Columbia, Canada
Distance from station: WSW 43km
Updated: 22/06/2021 10:00

 Wind from WNW
Wind: WNW 43 km/h, Gust: 54 km/h
Temperature: 13°C
Dew Point: 10°C
Humidity: 82%
2021/06/22 17:00 CWSP 221700Z AUTO 29023G29KT 13/10 RMK AO1 PK WND 29030/1630 SLP112 T01260102 53002